Time;durP1;ratioP1;P1;durP2;ratioP2;P2;SDS_P1;SDS_P2;PMS_P1;PMS_P2;Temp;Humidity;BMP_temperature;BMP_pressure;BME280_temperature;BME280_humidity;BME280_pressure;Samples;Min_cycle;Max_cycle;Signal;HPM_P1;HPM_P2
2020/12/29 00:01:49;;;;;;;98.23;34.50;;;;;;;1.17;80.53;100004.83;1672714;84;21229;-83
2020/12/29 00:04:22;;;;;;;69.27;26.23;;;;;;;1.06;80.76;99990.50;1634584;86;21358;-84
2020/12/29 00:06:54;;;;;;;84.87;33.33;;;;;;;1.02;80.99;100012.72;1653965;84;21274;-82
2020/12/29 00:09:23;;;;;;;83.73;31.83;;;;;;;1.08;80.86;100000.39;1681582;84;21190;-81
2020/12/29 00:11:50;;;;;;;95.37;34.13;;;;;;;1.15;80.62;100019.89;1685059;84;21547;-83
2020/12/29 00:14:20;;;;;;;95.67;34.70;;;;;;;1.09;80.70;100014.70;1674079;84;21660;-82
2020/12/29 00:16:47;;;;;;;73.97;27.23;;;;;;;1.06;80.84;99997.89;1676772;84;21612;-84
2020/12/29 00:19:22;;;;;;;75.77;28.53;;;;;;;1.15;80.57;100008.89;1669317;84;21675;-84
2020/12/29 00:21:49;;;;;;;64.93;24.87;;;;;;;1.20;80.22;100022.91;1674268;84;21396;-83
2020/12/29 00:24:16;;;;;;;90.40;31.57;;;;;;;1.14;80.37;100015.59;1682561;84;21361;-83
2020/12/29 00:26:44;;;;;;;89.00;32.70;;;;;;;1.07;80.60;100011.84;1678657;84;21160;-84
2020/12/29 00:29:11;;;;;;;96.60;39.20;;;;;;;1.13;80.61;100001.64;1665047;84;21320;-86
2020/12/29 00:31:39;;;;;;;100.53;39.83;;;;;;;1.24;80.31;100006.41;1649106;84;21218;-84
2020/12/29 00:34:06;;;;;;;91.60;35.47;;;;;;;1.14;80.58;99989.34;1661967;84;21167;-83
2020/12/29 00:36:33;;;;;;;100.70;36.93;;;;;;;1.06;80.85;99981.32;1678610;83;21103;-84
2020/12/29 00:39:00;;;;;;;82.60;33.30;;;;;;;1.10;80.68;99993.20;1663714;83;21211;-86
2020/12/29 00:41:29;;;;;;;71.13;31.57;;;;;;;1.16;80.52;99987.41;1671326;84;21238;-85
2020/12/29 00:43:56;;;;;;;78.33;28.17;;;;;;;1.12;80.62;100007.02;1672399;84;21298;-84
2020/12/29 00:46:24;;;;;;;84.67;32.83;;;;;;;1.09;80.72;100004.66;1668326;84;21676;-84
2020/12/29 00:48:51;;;;;;;119.83;40.20;;;;;;;1.18;80.45;99999.91;1665394;84;21214;-86
2020/12/29 00:51:21;;;;;;;72.97;25.73;;;;;;;1.25;80.10;99997.58;1670993;84;22315;-84
2020/12/29 00:53:59;;;;;;;92.00;34.47;;;;;;;1.13;80.21;99987.20;1669454;84;21390;-84
2020/12/29 00:56:28;;;;;;;73.47;31.17;;;;;;;1.08;80.48;99968.89;1689530;82;21189;-84
2020/12/29 00:58:55;;;;;;;53.60;23.73;;;;;;;1.17;80.27;99990.39;1651243;85;21183;-84
2020/12/29 01:01:23;;;;;;;64.73;27.00;;;;;;;1.24;80.08;99980.97;1661097;85;21191;-85
2020/12/29 01:04:09;;;;;;;55.27;27.47;;;;;;;1.08;80.60;99990.70;1661617;85;21346;-84
2020/12/29 01:06:37;;;;;;;72.90;29.53;;;;;;;1.05;80.83;99974.39;1645076;86;21258;-85
2020/12/29 01:09:06;;;;;;;65.30;29.23;;;;;;;1.12;80.68;99970.27;1649154;85;21191;-88
2020/12/29 01:11:36;;;;;;;49.73;25.57;;;;;;;0.95;81.15;99987.02;1686840;83;21345;-86
2020/12/29 01:14:05;;;;;;;44.80;25.47;;;;;;;0.96;81.18;99981.28;1650842;85;21210;-85
2020/12/29 01:16:39;;;;;;;62.07;27.77;;;;;;;0.99;81.12;99954.77;1661898;85;21207;-87
2020/12/29 01:19:07;;;;;;;112.33;39.50;;;;;;;1.06;80.97;99966.88;1647354;85;21252;-86
2020/12/29 01:21:37;;;;;;;93.70;31.63;;;;;;;1.03;81.13;99961.89;1656509;85;21219;-86
2020/12/29 01:24:04;;;;;;;98.93;36.00;;;;;;;1.06;81.05;99951.13;1667680;85;21649;-88
2020/12/29 01:26:31;;;;;;;115.73;38.13;;;;;;;1.19;80.53;99967.45;1647102;85;21227;-86
2020/12/29 01:28:58;;;;;;;102.00;38.73;;;;;;;1.19;80.40;99956.09;1676103;81;21276;-82
2020/12/29 01:31:30;;;;;;;100.53;35.73;;;;;;;1.15;80.53;99948.52;1683789;83;21191;-85
2020/12/29 01:33:59;;;;;;;66.87;24.20;;;;;;;1.07;80.65;99961.96;1669558;85;21595;-82
2020/12/29 01:36:33;;;;;;;60.00;26.30;;;;;;;1.19;80.42;99966.59;1748699;76;22485;-85
2020/12/29 01:39:01;;;;;;;51.67;20.93;;;;;;;1.11;80.48;99929.22;1684866;83;21220;-83
2020/12/29 01:41:32;;;;;;;51.80;26.60;;;;;;;1.08;80.71;99952.64;1713151;82;21169;-84
2020/12/29 01:44:15;;;;;;;44.93;22.83;;;;;;;1.15;80.53;99957.70;1713240;82;21773;-85
2020/12/29 01:47:09;;;;;;;35.07;20.87;;;;;;;1.04;80.95;99946.51;1778112;77;23370;-83
2020/12/29 01:49:37;;;;;;;33.17;18.27;;;;;;;0.96;81.14;99941.91;1744966;79;21156;-85
2020/12/29 01:52:04;;;;;;;37.87;23.97;;;;;;;1.03;81.03;99929.09;1732414;75;21135;-83
2020/12/29 01:54:33;;;;;;;40.83;21.70;;;;;;;0.96;81.12;99942.77;1751796;77;21196;-85
2020/12/29 01:57:00;;;;;;;48.33;23.53;;;;;;;1.00;81.07;99942.01;1741143;77;21185;-82
2020/12/29 01:59:29;;;;;;;42.50;24.43;;;;;;;1.09;80.89;99931.16;1745302;77;21196;-85
2020/12/29 02:01:59;;;;;;;41.87;21.87;;;;;;;1.07;80.92;99923.41;1731274;77;21207;-84
2020/12/29 02:04:26;;;;;;;40.27;20.17;;;;;;;1.00;81.08;99920.16;1738474;80;21296;-86
2020/12/29 02:06:54;;;;;;;56.13;24.27;;;;;;;1.02;81.09;99917.77;1732469;82;21233;-85
2020/12/29 02:09:21;;;;;;;43.57;23.70;;;;;;;1.13;80.80;99919.41;1723970;82;21323;-83
2020/12/29 02:11:48;;;;;;;56.57;24.73;;;;;;;0.97;81.05;99918.66;1686297;82;21172;-85
2020/12/29 02:14:16;;;;;;;53.37;20.47;;;;;;;0.88;81.56;99921.59;1709671;82;21761;-84
2020/12/29 02:16:43;;;;;;;63.30;26.30;;;;;;;1.05;81.11;99904.34;1710017;82;21209;-83
2020/12/29 02:19:11;;;;;;;104.77;33.17;;;;;;;1.01;81.22;99895.09;1718573;82;21259;-84
2020/12/29 02:21:38;;;;;;;69.90;25.63;;;;;;;0.92;81.52;99890.20;1704983;82;21626;-83
2020/12/29 02:24:05;;;;;;;71.10;26.20;;;;;;;0.92;81.60;99899.85;1686108;83;21285;-85
2020/12/29 02:26:36;;;;;;;84.57;32.67;;;;;;;0.96;81.36;99886.80;1705589;82;21203;-86
2020/12/29 02:29:05;;;;;;;87.23;29.93;;;;;;;0.99;81.26;99873.41;1699515;83;21184;-86
2020/12/29 02:31:32;;;;;;;60.93;23.13;;;;;;;0.96;81.33;99885.02;1718434;82;21344;-86
2020/12/29 02:34:00;;;;;;;77.77;25.60;;;;;;;0.99;81.16;99886.53;1716909;82;21205;-85
2020/12/29 02:36:27;;;;;;;80.33;27.97;;;;;;;1.10;80.77;99879.84;1713538;82;21099;-84
2020/12/29 02:38:54;;;;;;;68.53;24.60;;;;;;;1.04;80.90;99892.20;1711746;81;21333;-84
2020/12/29 02:41:21;;;;;;;60.00;23.30;;;;;;;1.01;81.09;99885.09;1711702;82;21284;-84
2020/12/29 02:43:48;;;;;;;43.07;17.80;;;;;;;0.98;81.21;99912.45;1667834;84;21220;-84
2020/12/29 02:46:16;;;;;;;49.37;20.93;;;;;;;1.09;80.81;99918.03;1665777;85;21164;-82
2020/12/29 02:48:43;;;;;;;32.80;15.77;;;;;;;1.02;80.84;99901.16;1655059;85;21181;-84
2020/12/29 02:51:15;;;;;;;28.53;17.70;;;;;;;0.91;81.39;99901.66;1709429;82;22182;-85
2020/12/29 02:53:42;;;;;;;33.57;16.33;;;;;;;0.96;81.27;99891.59;1717079;82;21340;-85
2020/12/29 02:56:09;;;;;;;52.63;24.37;;;;;;;1.00;81.14;99889.98;1711129;82;21590;-85
2020/12/29 02:58:40;;;;;;;48.97;23.50;;;;;;;0.99;81.25;99888.34;1708061;82;21329;-85
2020/12/29 03:01:07;;;;;;;35.30;19.23;;;;;;;0.95;81.35;99909.59;1716446;82;21236;-84
2020/12/29 03:03:34;;;;;;;38.80;19.33;;;;;;;0.98;81.25;99901.95;1687211;84;21643;-86
2020/12/29 03:06:01;;;;;;;32.67;17.87;;;;;;;1.02;81.11;99881.02;1663926;84;21185;-86
2020/12/29 03:08:27;;;;;;;43.90;23.30;;;;;;;0.94;81.21;99894.83;1656617;85;21253;-84
2020/12/29 03:10:54;;;;;;;41.80;20.37;;;;;;;1.03;81.09;99866.09;1643876;87;21262;-84
2020/12/29 03:13:24;;;;;;;;;;;;;;;1.00;81.05;99868.98;1630615;87;21448;-85
2020/12/29 03:15:51;;;;;;;37.40;18.93;;;;;;;0.94;81.21;99870.36;1679028;85;20647;-85
2020/12/29 03:18:20;;;;;;;39.57;18.20;;;;;;;0.96;81.29;99865.34;1678616;84;21168;-84
2020/12/29 03:20:47;;;;;;;43.50;21.60;;;;;;;1.03;81.02;99873.97;1659506;84;21403;-86
2020/12/29 03:23:14;;;;;;;45.73;22.47;;;;;;;1.03;80.97;99879.22;1682091;85;21195;-85
2020/12/29 03:25:41;;;;;;;39.97;19.23;;;;;;;0.95;81.25;99882.04;1673067;85;21245;-85
2020/12/29 03:28:07;;;;;;;;;;;;;;;1.03;81.02;99870.03;1679765;85;21207;-85
2020/12/29 03:30:34;;;;;;;37.55;19.82;;;;;;;1.11;80.81;99883.28;1674436;85;20191;-85
2020/12/29 03:33:02;;;;;;;31.33;17.63;;;;;;;1.03;81.00;99893.66;1665572;85;21243;-87
2020/12/29 03:35:29;;;;;;;26.93;18.30;;;;;;;0.97;81.11;99868.30;1682624;84;21015;-86
2020/12/29 03:37:57;;;;;;;29.03;17.80;;;;;;;1.02;81.05;99873.14;1706791;83;21208;-87
2020/12/29 03:40:24;;;;;;;35.83;17.43;;;;;;;1.07;80.71;99856.97;1697277;83;21330;-88
2020/12/29 03:42:53;;;;;;;33.67;19.03;;;;;;;1.09;80.72;99839.28;1694834;83;21207;-86
2020/12/29 03:45:21;;;;;;;66.33;25.27;;;;;;;0.99;81.05;99857.66;1700487;84;21311;-87
2020/12/29 03:47:48;;;;;;;77.57;26.30;;;;;;;1.10;80.83;99857.52;1678807;84;21776;-85
2020/12/29 03:50:15;;;;;;;37.57;18.53;;;;;;;1.20;80.66;99860.14;1669083;84;21203;-86
2020/12/29 03:52:42;;;;;;;60.57;23.63;;;;;;;1.13;80.69;99849.37;1654659;85;21184;-86
2020/12/29 03:55:09;;;;;;;50.07;20.70;;;;;;;1.13;80.79;99859.88;1705043;83;21173;-86
2020/12/29 03:57:36;;;;;;;29.33;15.53;;;;;;;1.27;80.49;99863.05;1700203;83;21229;-85
2020/12/29 04:00:05;;;;;;;23.37;13.47;;;;;;;1.20;80.36;99864.08;1691140;83;21201;-87
2020/12/29 04:02:35;;;;;;;22.17;15.23;;;;;;;1.03;80.94;99887.09;1683249;83;21193;-84
2020/12/29 04:05:03;;;;;;;25.00;16.60;;;;;;;1.07;80.84;99879.28;1700605;83;21208;-85
2020/12/29 04:07:30;;;;;;;22.70;16.00;;;;;;;1.10;80.76;99869.83;1698435;82;21167;-84
2020/12/29 04:09:58;;;;;;;22.67;13.97;;;;;;;1.03;80.95;99862.16;1706068;83;21813;-86
2020/12/29 04:12:25;;;;;;;23.10;16.60;;;;;;;0.94;81.45;99883.02;1694100;83;21198;-85
2020/12/29 04:14:52;;;;;;;20.63;14.27;;;;;;;0.99;81.38;99868.66;1655941;85;21190;-86
2020/12/29 04:17:19;;;;;;;25.00;16.13;;;;;;;1.07;81.08;99858.28;1704286;83;21168;-82
2020/12/29 04:19:46;;;;;;;28.43;16.97;;;;;;;0.96;81.42;99865.34;1711299;83;21163;-84
2020/12/29 04:22:13;;;;;;;26.47;15.33;;;;;;;0.94;81.65;99867.28;1706783;83;21223;-83
2020/12/29 04:24:39;;;;;;;35.30;19.17;;;;;;;0.95;81.58;99849.23;1678589;84;21192;-83
2020/12/29 04:27:06;;;;;;;37.30;22.20;;;;;;;1.07;81.27;99846.47;1668107;84;22192;-83
2020/12/29 04:29:34;;;;;;;32.73;16.37;;;;;;;1.08;81.27;99841.58;1648763;85;21707;-85
2020/12/29 04:32:01;;;;;;;65.20;24.47;;;;;;;1.02;81.42;99843.42;1655280;84;21730;-85
2020/12/29 04:34:28;;;;;;;59.47;21.63;;;;;;;0.95;81.79;99851.05;1700789;83;21220;-84
2020/12/29 04:36:54;;;;;;;;;;;;;;;1.10;81.39;99856.21;1717213;82;21113;-84
2020/12/29 04:39:21;;;;;;;66.10;25.13;;;;;;;1.15;81.13;99843.51;1726688;81;20287;-85
2020/12/29 04:41:51;;;;;;;53.27;24.50;;;;;;;1.00;81.53;99844.91;1717097;81;21931;-86
2020/12/29 04:44:20;;;;;;;48.70;22.63;;;;;;;0.98;81.61;99844.22;1715727;82;21199;-86
2020/12/29 04:46:48;;;;;;;42.60;22.43;;;;;;;1.05;81.42;99853.66;1708783;82;21167;-89
2020/12/29 04:49:15;;;;;;;57.67;24.73;;;;;;;1.07;81.29;99834.66;1637645;85;21190;-88
2020/12/29 04:51:42;;;;;;;67.13;29.30;;;;;;;0.95;81.62;99826.93;1640327;85;21241;-89
2020/12/29 04:54:10;;;;;;;57.13;26.70;;;;;;;1.00;81.59;99846.67;1647008;85;21180;-88
2020/12/29 04:58:49;;;;;;;55.97;27.53;;;;;;;1.02;81.66;99849.52;1804484;77;23090;-90
2020/12/29 05:01:18;;;;;;;54.67;24.20;;;;;;;0.90;81.97;99827.82;1806172;78;21295;-90
2020/12/29 05:03:49;;;;;;;54.80;26.93;;;;;;;0.80;81.69;99811.27;1806085;78;21155;-90
2020/12/29 05:06:22;;;;;;;118.20;40.17;;;;;;;0.99;81.68;99815.67;1808742;78;21061;-90
2020/12/29 05:08:53;;;;;;;92.17;39.03;;;;;;;0.91;82.08;99813.75;1768047;79;21247;-90
2020/12/29 05:11:25;;;;;;;58.33;27.80;;;;;;;0.81;81.76;99756.52;1788277;78;21168;-91
2020/12/29 05:13:58;;;;;;;72.03;30.73;;;;;;;1.04;81.57;99817.90;1767493;79;21152;-89
2020/12/29 05:16:26;;;;;;;111.57;41.13;;;;;;;0.93;81.77;99830.67;1773550;79;21786;-89
2020/12/29 05:18:55;;;;;;;75.77;31.03;;;;;;;1.00;81.86;99843.59;1760331;81;21320;-89
2020/12/29 05:24:13;;;;;;;66.33;30.57;;;;;;;0.99;82.06;99833.23;1777228;79;23185;-84
2020/12/29 05:26:43;;;;;;;56.57;27.60;;;;;;;0.84;82.41;99842.81;1671147;84;21329;-83
2020/12/29 05:29:13;;;;;;;49.63;24.27;;;;;;;0.81;82.69;99848.36;1656218;84;21185;-83
2020/12/29 05:31:42;;;;;;;61.80;29.93;;;;;;;0.82;82.69;99831.63;1700091;84;21209;-84
2020/12/29 05:34:27;;;;;;;109.33;41.77;;;;;;;0.85;82.53;99837.92;1704797;84;21236;-82
2020/12/29 05:36:56;;;;;;;63.83;27.37;;;;;;;0.80;82.81;99836.19;1662616;81;21157;-83
2020/12/29 05:39:27;;;;;;;62.07;25.93;;;;;;;0.85;82.71;99839.70;1635662;85;21204;-88
2020/12/29 05:41:56;;;;;;;67.07;31.17;;;;;;;0.90;82.57;99817.81;1640564;85;21419;-86
2020/12/29 05:44:29;;;;;;;58.37;25.20;;;;;;;0.89;82.49;99847.66;1640250;85;21864;-85
2020/12/29 05:47:00;;;;;;;70.13;27.07;;;;;;;0.81;82.86;99859.31;1649385;85;21390;-86
2020/12/29 05:49:27;;;;;;;44.10;22.17;;;;;;;0.85;82.90;99867.25;1639430;85;21220;-85
2020/12/29 05:52:05;;;;;;;49.43;28.13;;;;;;;0.63;82.62;99804.09;1649669;85;21216;-85
2020/12/29 05:54:27;;;;;;;41.30;24.00;;;;;;;0.92;82.53;99863.97;1655586;85;21208;-85
2020/12/29 05:56:55;;;;;;;45.70;26.43;;;;;;;0.78;83.08;99850.75;1653354;84;22240;-82
2020/12/29 05:59:23;;;;;;;85.27;35.90;;;;;;;0.81;83.13;99858.85;1642591;85;21419;-83
2020/12/29 06:01:54;;;;;;;74.57;30.10;;;;;;;0.93;82.88;99849.86;1640674;85;21900;-85
2020/12/29 06:04:39;;;;;;;92.67;33.93;;;;;;;1.00;82.91;99844.91;1764417;79;23602;-85
2020/12/29 06:07:12;;;;;;;58.83;25.90;;;;;;;0.84;83.18;99841.50;1667650;81;21802;-86
2020/12/29 06:09:39;;;;;;;85.90;30.60;;;;;;;0.87;83.05;99858.78;1678338;83;21199;-86
2020/12/29 06:12:09;;;;;;;99.43;35.90;;;;;;;0.85;83.30;99837.92;1702458;83;21362;-86
2020/12/29 06:14:47;;;;;;;66.77;31.33;;;;;;;0.92;83.15;99835.56;1646751;84;21199;-86
2020/12/29 06:17:16;;;;;;;79.00;33.87;;;;;;;0.89;83.21;99844.55;1668366;84;21206;-86
2020/12/29 06:19:49;;;;;;;60.50;28.93;;;;;;;0.83;83.31;99836.38;1669944;84;21186;-84
2020/12/29 06:22:16;;;;;;;66.33;27.47;;;;;;;0.75;83.58;99820.88;1669863;84;21494;-86
2020/12/29 06:24:47;;;;;;;57.80;25.00;;;;;;;0.88;83.26;99819.27;1665576;84;21171;-86
2020/12/29 06:27:14;;;;;;;85.23;32.40;;;;;;;0.90;83.19;99812.08;1663131;84;21191;-87
2020/12/29 06:29:44;;;;;;;82.97;30.17;;;;;;;0.85;83.39;99802.96;1670732;84;21198;-86
2020/12/29 06:32:13;;;;;;;85.07;35.17;;;;;;;0.75;83.78;99809.07;1641086;84;21383;-84
2020/12/29 06:34:44;;;;;;;73.37;29.97;;;;;;;0.88;83.46;99810.57;1663363;84;21390;-87
2020/12/29 06:37:36;;;;;;;73.27;29.03;;;;;;;0.90;83.41;99819.13;1654293;83;21325;-85
2020/12/29 06:40:06;;;;;;;53.27;24.70;;;;;;;0.86;83.58;99792.33;1654037;85;21171;-84
2020/12/29 06:42:43;;;;;;;55.67;25.27;;;;;;;0.80;83.63;99809.13;1649796;83;21196;-82
2020/12/29 06:45:14;;;;;;;61.87;26.93;;;;;;;0.87;83.50;99815.00;1651178;83;21289;-84
2020/12/29 06:47:45;;;;;;;67.37;31.70;;;;;;;0.90;83.42;99825.69;1653694;83;21184;-84
2020/12/29 06:50:29;;;;;;;85.53;33.67;;;;;;;0.79;83.92;99826.64;1653523;83;21177;-86
2020/12/29 06:53:04;;;;;;;83.93;31.17;;;;;;;0.31;83.73;99733.87;1652365;83;21174;-88
2020/12/29 06:55:39;;;;;;;69.13;29.73;;;;;;;0.93;83.56;99817.55;1656892;81;21273;-88
2020/12/29 06:58:07;;;;;;;69.50;31.10;;;;;;;0.93;83.56;99819.69;1652934;83;21223;-84
2020/12/29 07:00:35;;;;;;;65.23;28.10;;;;;;;0.89;83.78;99830.61;1650768;85;21223;-84
2020/12/29 07:03:07;;;;;;;73.67;25.83;;;;;;;0.85;83.84;99824.80;1644294;85;21195;-89
2020/12/29 07:05:37;;;;;;;63.10;25.33;;;;;;;-0.14;83.43;99641.85;1641910;85;21085;-87
2020/12/29 07:08:06;;;;;;;61.23;28.00;;;;;;;0.97;83.42;99816.30;1646397;86;21206;-87
2020/12/29 07:10:44;;;;;;;34.23;19.33;;;;;;;0.91;83.47;99819.00;1627932;86;21196;-87
2020/12/29 07:13:15;;;;;;;31.80;17.23;;;;;;;0.82;83.81;99825.56;1640930;86;21175;-86
2020/12/29 07:18:48;;;;;;;44.60;21.80;;;;;;;0.89;83.92;99809.13;1778948;77;26990;-88
2020/12/29 07:21:26;;;;;;;48.30;22.77;;;;;;;0.85;83.92;99816.94;1784907;78;21381;-86
2020/12/29 07:23:54;;;;;;;61.97;26.63;;;;;;;0.82;84.19;99811.13;1768277;78;21220;-88
2020/12/29 07:26:28;;;;;;;58.27;23.53;;;;;;;0.84;84.26;99811.33;1734976;79;21147;-87
2020/12/29 07:28:58;;;;;;;70.77;24.07;;;;;;;0.86;83.75;99813.33;1789015;78;21305;-86
2020/12/29 07:31:38;;;;;;;;;;;;;;;;;;;;;
2020/12/29 07:34:14;;;;;;;46.77;16.93;;;;;;;0.89;83.98;99787.31;1819255;77;23027;-86
2020/12/29 07:36:50;;;;;;;66.70;26.17;;;;;;;0.84;83.86;99786.89;1749294;79;21029;-86
2020/12/29 07:39:20;;;;;;;48.08;19.20;;;;;;;0.86;84.00;99812.50;1721904;83;21330;-86
2020/12/29 07:41:47;;;;;;;74.17;27.57;;;;;;;0.87;83.92;99802.37;1713657;83;21204;-85
2020/12/29 07:44:17;;;;;;;84.30;28.00;;;;;;;0.91;83.91;99796.69;1723894;82;21170;-88
2020/12/29 07:46:44;;;;;;;74.33;26.47;;;;;;;0.91;83.98;99803.74;1701277;83;21393;-88
2020/12/29 07:49:13;;;;;;;54.87;22.63;;;;;;;0.80;84.33;99798.14;1727670;82;21229;-86
2020/12/29 07:52:08;;;;;;;94.33;30.53;;;;;;;0.95;84.19;99803.80;1806770;78;22382;-88
2020/12/29 07:54:38;;;;;;;64.77;24.47;;;;;;;0.99;83.99;99806.98;1804056;78;21187;-86
2020/12/29 07:57:17;;;;;;;82.00;30.03;;;;;;;1.01;84.12;99798.48;1812982;77;23285;-83
2020/12/29 07:59:44;;;;;;;52.33;21.07;;;;;;;0.93;84.35;99805.25;1756052;80;21197;-86
2020/12/29 08:02:15;;;;;;;63.30;22.50;;;;;;;0.98;84.21;99791.73;1730829;80;21662;-85
2020/12/29 08:04:44;;;;;;;48.10;20.90;;;;;;;1.13;83.79;99790.78;1755316;81;21176;-85
2020/12/29 08:07:11;;;;;;;39.27;17.30;;;;;;;1.04;83.60;99785.09;1704965;79;21086;-87
2020/12/29 08:09:45;;;;;;;50.00;18.73;;;;;;;0.97;83.94;99788.74;1711086;82;21186;-87
2020/12/29 08:12:19;;;;;;;40.43;16.70;;;;;;;1.02;83.91;99775.19;1710048;82;21221;-86
2020/12/29 08:14:48;;;;;;;56.03;21.23;;;;;;;0.97;83.58;99762.50;1735843;81;21207;-86
2020/12/29 08:17:16;;;;;;;63.67;23.50;;;;;;;1.02;83.85;99775.19;1725397;81;21281;-85
2020/12/29 08:19:43;;;;;;;48.63;18.40;;;;;;;1.09;83.59;99777.59;1751748;81;21199;-87
2020/12/29 08:22:10;;;;;;;51.20;16.97;;;;;;;0.96;83.77;99806.30;1739076;81;21716;-87
2020/12/29 08:24:41;;;;;;;87.63;26.00;;;;;;;1.05;83.60;99774.42;1743193;81;21263;-87
2020/12/29 08:27:08;;;;;;;51.73;19.57;;;;;;;1.14;83.50;99776.20;1741809;81;21175;-87
2020/12/29 08:30:11;;;;;;;47.13;16.03;;;;;;;1.18;83.55;99772.00;1804909;78;22939;-87
2020/12/29 08:32:41;;;;;;;70.83;23.40;;;;;;;0.45;83.58;99673.63;1773534;80;21164;-86
2020/12/29 08:35:15;;;;;;;87.23;27.87;;;;;;;1.20;83.42;99769.56;1709263;82;21351;-87
2020/12/29 08:38:04;;;;;;;55.67;22.07;;;;;;;1.29;83.20;99766.58;1645602;86;21786;-88
2020/12/29 08:40:42;;;;;;;80.43;27.57;;;;;;;1.21;83.26;99748.09;1648848;85;21201;-90
2020/12/29 08:43:16;;;;;;;93.60;27.50;;;;;;;1.18;83.39;99737.38;1683050;83;21201;-88
2020/12/29 08:45:43;;;;;;;89.03;26.23;;;;;;;1.26;83.09;99783.92;1698898;83;21437;-87
2020/12/29 08:48:10;;;;;;;80.87;25.93;;;;;;;1.28;82.90;99743.45;1695686;83;21213;-88
2020/12/29 08:50:37;;;;;;;92.57;30.63;;;;;;;1.24;83.12;99750.42;1661886;84;21392;-87
2020/12/29 08:53:08;;;;;;;70.77;24.37;;;;;;;1.25;83.21;99733.22;1625800;87;21879;-87
2020/12/29 08:55:36;;;;;;;99.13;30.07;;;;;;;1.36;82.87;99738.30;1685725;83;21233;-85
2020/12/29 08:58:03;;;;;;;83.23;26.50;;;;;;;1.40;82.79;99720.45;1688559;84;21245;-87
2020/12/29 09:00:32;;;;;;;66.03;23.50;;;;;;;1.29;83.15;99700.94;1692643;83;21177;-90
2020/12/29 09:02:59;;;;;;;63.07;22.53;;;;;;;1.06;83.02;99662.41;1691487;84;21721;-86
2020/12/29 09:05:28;;;;;;;92.00;29.20;;;;;;;1.38;82.77;99707.95;1677040;84;21113;-88
2020/12/29 09:07:55;;;;;;;76.83;24.00;;;;;;;1.34;82.70;99707.41;1696788;82;21231;-87
2020/12/29 09:10:23;;;;;;;73.00;25.43;;;;;;;1.21;83.13;99696.91;1721340;82;21203;-85
2020/12/29 09:12:50;;;;;;;64.37;23.20;;;;;;;1.22;83.56;99681.48;1717460;83;21686;-87
2020/12/29 09:15:27;;;;;;;73.90;22.97;;;;;;;1.31;83.14;99680.13;1711442;82;21164;-85
2020/12/29 09:18:05;;;;;;;84.32;26.17;;;;;;;1.19;83.58;99681.30;1719855;82;21237;-87
2020/12/29 09:20:32;;;;;;;;;;;;;;;0.41;84.21;99522.81;1709679;80;21191;-83
2020/12/29 09:23:25;;;;;;;59.30;21.67;;;;;;;1.30;83.71;99660.11;1702078;83;20616;-88
2020/12/29 09:25:55;;;;;;;69.10;21.40;;;;;;;1.21;83.70;99653.59;1691360;83;21184;-88
2020/12/29 09:28:24;;;;;;;51.90;17.90;;;;;;;1.17;84.08;99692.42;1684671;83;21185;-88
2020/12/29 09:30:59;;;;;;;42.53;14.57;;;;;;;1.34;83.95;99680.34;1697640;82;21696;-88
2020/12/29 09:33:28;;;;;;;64.03;22.33;;;;;;;1.44;83.59;99631.70;1668845;83;21228;-87
2020/12/29 09:35:58;;;;;;;61.70;22.13;;;;;;;1.42;83.63;99649.41;1645217;84;21170;-91
2020/12/29 09:38:26;;;;;;;88.20;29.30;;;;;;;1.42;84.24;99648.09;1659363;85;21431;-88
2020/12/29 09:40:58;;;;;;;60.70;21.60;;;;;;;1.56;83.36;99644.95;1716677;82;21206;-88
2020/12/29 09:43:25;;;;;;;77.63;24.07;;;;;;;1.55;82.96;99626.25;1712198;83;21214;-90
2020/12/29 09:45:52;;;;;;;89.30;26.37;;;;;;;1.47;83.11;99632.70;1680284;83;21224;-88
2020/12/29 09:48:19;;;;;;;66.93;21.57;;;;;;;1.48;83.11;99618.12;1712015;82;21210;-88
2020/12/29 09:50:50;;;;;;;68.57;23.43;;;;;;;1.61;82.79;99616.95;1722327;82;21216;-89
2020/12/29 09:53:19;;;;;;;76.07;25.13;;;;;;;1.63;82.73;99600.55;1696803;82;21353;-89
2020/12/29 09:55:56;;;;;;;58.13;17.47;;;;;;;1.58;83.00;99615.42;1707797;82;21200;-91
2020/12/29 09:58:25;;;;;;;32.77;15.47;;;;;;;1.50;82.82;99627.17;1712229;82;21855;-88
2020/12/29 10:00:52;;;;;;;27.33;14.33;;;;;;;1.62;82.78;99607.61;1705677;83;21317;-91
2020/12/29 10:03:21;;;;;;;27.17;14.07;;;;;;;1.63;82.89;99619.76;1671700;83;22237;-89
2020/12/29 10:05:51;;;;;;;20.00;11.47;;;;;;;1.50;83.07;99599.59;1653458;85;21211;-87
2020/12/29 10:08:18;;;;;;;24.43;11.87;;;;;;;1.57;83.22;99578.33;1653154;85;21240;-88
2020/12/29 10:10:46;;;;;;;37.37;13.57;;;;;;;1.59;83.25;99591.32;1652536;85;21213;-87
2020/12/29 10:13:14;;;;;;;37.87;15.57;;;;;;;1.62;83.50;99569.98;1645993;85;21949;-91
2020/12/29 10:15:42;;;;;;;44.67;15.83;;;;;;;1.50;83.45;99583.34;1621850;86;21224;-87
2020/12/29 10:18:13;;;;;;;61.07;19.33;;;;;;;1.51;83.59;99567.11;1639101;85;21246;-88
2020/12/29 10:20:41;;;;;;;26.27;13.13;;;;;;;1.63;83.46;99571.16;1626719;85;21228;-90
2020/12/29 10:23:10;;;;;;;17.80;13.93;;;;;;;1.52;83.41;99585.33;1652252;85;21358;-89
2020/12/29 10:28:20;;;;;;;16.67;11.33;;;;;;;1.67;83.36;99550.17;1855563;75;28858;-91
2020/12/29 10:30:49;;;;;;;14.87;10.17;;;;;;;1.60;83.28;99585.92;1788836;78;21155;-88
2020/12/29 10:33:28;;;;;;;;;;;;;;;;;;;;;
2020/12/29 10:35:53;;;;;;;14.83;8.73;;;;;;;1.60;83.31;99569.31;1794004;77;21240;-89
2020/12/29 10:38:20;;;;;;;17.17;10.40;;;;;;;1.62;83.15;99583.97;1771265;79;21206;-90
2020/12/29 10:40:52;;;;;;;22.10;12.20;;;;;;;1.64;83.31;99558.84;1789905;79;21188;-88
2020/12/29 10:43:25;;;;;;;28.57;14.80;;;;;;;1.63;83.28;99572.47;1768833;79;21649;-89
2020/12/29 10:45:52;;;;;;;17.20;10.43;;;;;;;1.59;83.53;99588.20;1790207;78;21722;-87
2020/12/29 10:48:21;;;;;;;21.13;12.50;;;;;;;1.60;83.51;99580.67;1785238;79;21204;-87
2020/12/29 10:50:50;;;;;;;15.43;10.43;;;;;;;1.76;83.43;99568.16;1788242;78;21429;-88
2020/12/29 10:53:17;;;;;;;21.57;13.07;;;;;;;1.77;83.21;99572.92;1794720;79;21176;-87
2020/12/29 10:55:45;;;;;;;17.83;10.73;;;;;;;1.74;83.54;99571.44;1770070;79;21169;-87
2020/12/29 10:58:12;;;;;;;15.53;11.50;;;;;;;1.79;83.38;99551.26;1788732;79;21188;-86
2020/12/29 11:00:39;;;;;;;37.10;16.50;;;;;;;1.87;83.11;99556.61;1797401;79;21193;-87
2020/12/29 11:03:06;;;;;;;35.80;15.67;;;;;;;1.93;83.10;99576.52;1794459;78;21196;-86
2020/12/29 11:05:33;;;;;;;35.07;14.93;;;;;;;1.88;83.01;99555.12;1784017;78;21012;-90
2020/12/29 11:08:03;;;;;;;49.77;17.30;;;;;;;1.82;83.01;99566.23;1757253;80;21178;-92
2020/12/29 11:10:31;;;;;;;65.97;23.63;;;;;;;1.91;82.82;99562.70;1751117;80;21154;-88
2020/12/29 11:12:59;;;;;;;64.93;21.37;;;;;;;1.98;82.70;99562.94;1757855;80;21191;-90
2020/12/29 11:15:27;;;;;;;60.80;20.73;;;;;;;1.95;82.82;99550.09;1769366;80;21166;-90
2020/12/29 11:17:54;;;;;;;49.67;18.00;;;;;;;1.87;82.68;99554.80;1758397;80;21203;-89
2020/12/29 11:20:23;;;;;;;34.83;16.47;;;;;;;1.92;82.56;99538.09;1741248;79;21182;-88
2020/12/29 11:22:51;;;;;;;34.90;16.40;;;;;;;2.00;82.39;99542.59;1679575;84;21353;-91
2020/12/29 11:25:23;;;;;;;41.70;16.57;;;;;;;1.95;82.33;99539.58;1684120;84;21914;-90
2020/12/29 11:27:54;;;;;;;40.83;16.97;;;;;;;1.86;82.77;99537.36;1696444;84;21209;-91
2020/12/29 11:30:28;;;;;;;71.27;23.83;;;;;;;1.95;82.71;99531.69;1681520;80;21147;-89
2020/12/29 11:33:04;;;;;;;36.50;16.30;;;;;;;2.00;82.67;99525.50;1742839;82;21308;-91
2020/12/29 11:35:34;;;;;;;38.93;15.00;;;;;;;1.95;82.81;99529.88;1735165;81;21676;-90
2020/12/29 11:38:03;;;;;;;22.77;13.70;;;;;;;1.88;83.11;99530.64;1731288;82;21761;-91
2020/12/29 11:41:02;;;;;;;;;;;;;;;;;;;;;
2020/12/29 11:43:27;;;;;;;39.07;18.87;;;;;;;2.00;82.83;99505.78;1757325;81;22194;-90
2020/12/29 11:45:54;;;;;;;36.90;14.50;;;;;;;1.93;83.11;99516.07;1761502;81;21121;-88
2020/12/29 11:48:23;;;;;;;29.70;15.60;;;;;;;1.99;83.00;99521.70;1733385;80;21143;-88
2020/12/29 11:51:02;;;;;;;31.50;15.83;;;;;;;2.04;82.74;99523.39;1734308;78;21159;-91
2020/12/29 12:06:46;;;;;;;21.83;14.07;;;;;;;1.93;83.32;99495.05;1726365;81;28096;-91